Time;durP1;ratioP1;P1;durP2;ratioP2;P2;SDS_P1;SDS_P2;PMS_P1;PMS_P2;Temp;Humidity;BMP_temperature;BMP_pressure;BME280_temperature;BME280_humidity;BME280_pressure;Samples;Min_cycle;Max_cycle;Signal;HPM_P1;HPM_P2
2023/03/19 00:02:07;;;;;;;9.73;2.63;;;;;;;;;;5115854;28;20197;-88
2023/03/19 00:04:34;;;;;;;10.50;2.80;;;;;;;;;;5116269;28;20213;-89
2023/03/19 00:07:01;;;;;;;7.73;2.63;;;;;;;;;;5115966;28;20194;-88
2023/03/19 00:09:29;;;;;;;11.67;2.93;;;;;;;;;;5115847;28;20708;-87
2023/03/19 00:11:57;;;;;;;10.20;2.80;;;;;;;;;;5113366;28;20220;-89
2023/03/19 00:14:24;;;;;;;12.37;2.90;;;;;;;;;;5094937;28;20237;-88
2023/03/19 00:16:52;;;;;;;10.00;2.97;;;;;;;;;;5121449;27;20229;-88
2023/03/19 00:19:19;;;;;;;8.67;3.00;;;;;;;;;;5136494;27;20213;-89
2023/03/19 00:21:46;;;;;;;14.73;3.27;;;;;;;;;;5136588;27;20219;-87
2023/03/19 00:24:15;;;;;;;9.00;3.00;;;;;;;;;;5135938;27;20276;-89
2023/03/19 00:26:42;;;;;;;14.20;3.07;;;;;;;;;;5136322;27;20205;-89
2023/03/19 00:29:11;;;;;;;10.83;2.90;;;;;;;;;;5135918;27;20650;-89
2023/03/19 00:31:40;;;;;;;9.53;2.90;;;;;;;;;;5134035;27;20232;-77
2023/03/19 00:34:08;;;;;;;12.93;3.20;;;;;;;;;;5133490;27;20197;-77
2023/03/19 00:36:35;;;;;;;8.50;2.70;;;;;;;;;;5133217;27;20204;-78
2023/03/19 00:39:03;;;;;;;11.30;3.53;;;;;;;;;;5133657;27;20199;-78
2023/03/19 00:41:31;;;;;;;11.77;3.03;;;;;;;;;;5133915;27;20292;-77
2023/03/19 00:43:58;;;;;;;12.53;3.20;;;;;;;;;;5133585;27;20249;-78
2023/03/19 00:46:27;;;;;;;8.23;2.97;;;;;;;;;;5133084;27;20769;-77
2023/03/19 00:48:54;;;;;;;8.13;3.20;;;;;;;;;;5133645;27;20216;-76
2023/03/19 00:51:22;;;;;;;16.37;3.47;;;;;;;;;;5133773;27;20213;-77
2023/03/19 00:53:49;;;;;;;16.33;3.50;;;;;;;;;;5132818;27;20213;-78
2023/03/19 00:56:17;;;;;;;14.00;3.60;;;;;;;;;;5133498;27;20189;-77
2023/03/19 00:58:45;;;;;;;12.43;4.03;;;;;;;;;;5132998;27;20198;-78
2023/03/19 01:01:13;;;;;;;16.17;3.93;;;;;;;;;;5133002;27;20582;-77
2023/03/19 01:03:42;;;;;;;10.20;4.00;;;;;;;;;;5133167;27;20193;-76
2023/03/19 01:06:10;;;;;;;17.57;4.20;;;;;;;;;;5133027;27;20279;-78
2023/03/19 01:08:37;;;;;;;17.00;3.97;;;;;;;;;;5132856;27;20190;-77
2023/03/19 01:11:09;;;;;;;14.20;3.87;;;;;;;;;;5133005;27;20327;-77
2023/03/19 01:13:36;;;;;;;14.53;4.47;;;;;;;;;;5116788;27;20246;-77
2023/03/19 01:16:03;;;;;;;13.47;3.90;;;;;;;;;;5112717;28;20251;-77
2023/03/19 01:18:31;;;;;;;14.23;4.10;;;;;;;;;;5111985;28;20668;-77
2023/03/19 01:21:00;;;;;;;18.53;4.37;;;;;;;;;;5112777;28;20225;-77
2023/03/19 01:23:27;;;;;;;13.37;4.10;;;;;;;;;;5112043;28;20205;-77
2023/03/19 01:25:55;;;;;;;13.30;4.50;;;;;;;;;;5111802;28;20228;-77
2023/03/19 01:28:23;;;;;;;14.33;4.37;;;;;;;;;;5112475;28;20206;-77
2023/03/19 01:30:50;;;;;;;15.67;4.13;;;;;;;;;;5111776;28;20662;-76
2023/03/19 01:33:19;;;;;;;13.40;4.20;;;;;;;;;;5112335;28;20628;-77
2023/03/19 01:35:48;;;;;;;12.60;4.50;;;;;;;;;;5112217;28;20247;-77
2023/03/19 01:38:16;;;;;;;11.40;3.80;;;;;;;;;;5112122;28;20289;-78
2023/03/19 01:40:48;;;;;;;13.87;4.00;;;;;;;;;;5111738;28;20198;-77
2023/03/19 01:43:17;;;;;;;12.53;3.97;;;;;;;;;;5111490;28;20273;-77
2023/03/19 01:45:45;;;;;;;14.67;3.60;;;;;;;;;;5111920;28;20267;-76
2023/03/19 01:48:24;;;;;;;14.10;4.43;;;;;;;;;;5111755;28;20190;-78
2023/03/19 01:50:54;;;;;;;15.20;3.97;;;;;;;;;;5111426;28;20698;-79
2023/03/19 01:53:23;;;;;;;12.97;3.87;;;;;;;;;;5111704;28;20240;-79
2023/03/19 01:55:51;;;;;;;15.77;3.67;;;;;;;;;;5111794;28;20288;-78
2023/03/19 01:58:18;;;;;;;11.80;4.47;;;;;;;;;;5111792;28;20221;-79
2023/03/19 02:00:46;;;;;;;11.67;3.60;;;;;;;;;;5111746;28;20194;-78
2023/03/19 02:03:13;;;;;;;16.57;3.60;;;;;;;;;;5111446;28;20690;-79
2023/03/19 02:05:42;;;;;;;8.60;3.73;;;;;;;;;;5111357;28;20221;-78
2023/03/19 02:08:11;;;;;;;11.63;3.60;;;;;;;;;;5111309;28;20729;-79
2023/03/19 02:10:40;;;;;;;9.30;3.67;;;;;;;;;;5111679;28;20210;-79
2023/03/19 02:13:07;;;;;;;11.57;3.70;;;;;;;;;;5111238;28;20209;-79
2023/03/19 02:15:34;;;;;;;13.10;3.77;;;;;;;;;;5111439;28;20225;-79
2023/03/19 02:18:01;;;;;;;11.50;3.73;;;;;;;;;;5111500;28;20275;-79
2023/03/19 02:20:31;;;;;;;8.83;3.50;;;;;;;;;;5111953;28;20223;-77
2023/03/19 02:23:03;;;;;;;10.10;3.50;;;;;;;;;;5111545;28;20236;-78
2023/03/19 02:25:33;;;;;;;8.97;3.27;;;;;;;;;;5111374;28;20292;-78
2023/03/19 02:28:02;;;;;;;9.93;3.70;;;;;;;;;;5111372;28;20232;-78
2023/03/19 02:30:31;;;;;;;11.30;3.63;;;;;;;;;;5111444;28;20198;-79
2023/03/19 02:32:58;;;;;;;15.10;3.87;;;;;;;;;;5111879;28;20225;-79
2023/03/19 02:35:27;;;;;;;11.23;4.13;;;;;;;;;;5111512;28;20297;-81
2023/03/19 02:37:54;;;;;;;10.30;4.27;;;;;;;;;;5111504;28;20278;-79
2023/03/19 02:40:23;;;;;;;8.77;3.60;;;;;;;;;;5111067;28;20228;-79
2023/03/19 02:42:50;;;;;;;12.00;4.20;;;;;;;;;;5111560;28;20218;-79
2023/03/19 02:45:20;;;;;;;12.20;3.80;;;;;;;;;;5111502;28;20284;-79
2023/03/19 02:47:47;;;;;;;11.90;4.33;;;;;;;;;;5111154;28;20730;-78
2023/03/19 02:50:14;;;;;;;9.23;4.30;;;;;;;;;;5111354;28;20296;-78
2023/03/19 02:52:42;;;;;;;12.03;3.97;;;;;;;;;;5111274;28;20236;-78
2023/03/19 02:55:09;;;;;;;11.43;4.17;;;;;;;;;;5110994;28;20774;-79
2023/03/19 02:57:36;;;;;;;13.40;4.70;;;;;;;;;;5110877;28;20648;-79
2023/03/19 03:00:04;;;;;;;15.77;5.73;;;;;;;;;;5111052;28;20288;-79
2023/03/19 03:02:33;;;;;;;12.47;5.27;;;;;;;;;;5110958;28;20194;-78
2023/03/19 03:05:00;;;;;;;11.90;5.30;;;;;;;;;;5111451;28;20217;-77
2023/03/19 03:07:27;;;;;;;14.40;5.27;;;;;;;;;;5110890;28;20229;-78
2023/03/19 03:09:54;;;;;;;10.00;4.90;;;;;;;;;;5110559;28;20288;-77
2023/03/19 03:12:21;;;;;;;11.60;4.90;;;;;;;;;;5111052;28;20316;-78
2023/03/19 03:14:49;;;;;;;14.70;4.57;;;;;;;;;;5111257;28;20196;-79
2023/03/19 03:17:16;;;;;;;15.37;4.93;;;;;;;;;;5114480;28;20230;-79
2023/03/19 03:19:45;;;;;;;13.83;4.87;;;;;;;;;;5114652;28;20196;-78
2023/03/19 03:22:12;;;;;;;13.83;4.63;;;;;;;;;;5114949;28;20225;-78
2023/03/19 03:24:40;;;;;;;11.10;4.60;;;;;;;;;;5114190;28;20284;-77
2023/03/19 03:27:07;;;;;;;14.33;5.53;;;;;;;;;;5114972;28;20194;-78
2023/03/19 03:29:34;;;;;;;11.53;5.50;;;;;;;;;;5114883;28;20289;-79
2023/03/19 03:32:01;;;;;;;13.80;5.33;;;;;;;;;;5105856;28;20312;-79
2023/03/19 03:34:28;;;;;;;10.10;5.00;;;;;;;;;;5095821;27;20292;-76
2023/03/19 03:36:57;;;;;;;9.90;5.13;;;;;;;;;;5094231;28;20226;-78
2023/03/19 03:39:24;;;;;;;13.10;6.67;;;;;;;;;;5093873;28;20594;-78
2023/03/19 03:41:51;;;;;;;13.60;6.83;;;;;;;;;;5093853;28;20249;-78
2023/03/19 03:44:18;;;;;;;12.07;6.40;;;;;;;;;;5094115;28;20214;-78
2023/03/19 03:46:46;;;;;;;12.37;6.40;;;;;;;;;;5093913;28;20305;-78
2023/03/19 03:49:13;;;;;;;11.43;6.10;;;;;;;;;;5093743;28;20230;-78
2023/03/19 03:51:40;;;;;;;17.13;5.90;;;;;;;;;;5094229;28;20235;-78
2023/03/19 03:54:09;;;;;;;11.73;5.50;;;;;;;;;;5093358;28;20259;-77
2023/03/19 03:56:36;;;;;;;12.77;5.60;;;;;;;;;;5093671;28;20686;-79
2023/03/19 03:59:04;;;;;;;15.47;6.10;;;;;;;;;;5093607;28;20222;-77
2023/03/19 04:01:31;;;;;;;14.73;5.73;;;;;;;;;;5093456;28;20289;-78
2023/03/19 04:03:58;;;;;;;12.93;5.87;;;;;;;;;;5093271;28;20556;-79
2023/03/19 04:06:26;;;;;;;14.27;5.50;;;;;;;;;;5093287;28;20198;-78
2023/03/19 04:08:53;;;;;;;11.23;5.50;;;;;;;;;;5092925;28;20237;-77
2023/03/19 04:11:22;;;;;;;11.07;5.40;;;;;;;;;;5094935;28;20229;-78
2023/03/19 04:13:49;;;;;;;13.70;5.90;;;;;;;;;;5113715;28;20211;-78
2023/03/19 04:16:16;;;;;;;10.53;5.73;;;;;;;;;;5114145;28;20204;-79
2023/03/19 04:18:43;;;;;;;12.90;5.90;;;;;;;;;;5113293;28;20682;-79
2023/03/19 04:21:10;;;;;;;14.87;6.07;;;;;;;;;;5113739;28;20272;-79
2023/03/19 04:23:38;;;;;;;11.00;5.80;;;;;;;;;;5113450;28;20225;-78
2023/03/19 04:26:06;;;;;;;11.87;5.80;;;;;;;;;;5113692;28;20193;-79
2023/03/19 04:28:35;;;;;;;14.07;6.67;;;;;;;;;;5113372;27;20571;-79
2023/03/19 04:31:03;;;;;;;9.67;5.77;;;;;;;;;;5113228;28;20284;-78
2023/03/19 04:33:30;;;;;;;8.87;6.03;;;;;;;;;;5113115;28;20728;-76
2023/03/19 04:35:58;;;;;;;13.37;6.57;;;;;;;;;;5113577;28;20197;-77
2023/03/19 04:38:26;;;;;;;15.43;6.07;;;;;;;;;;5113399;28;20225;-79
2023/03/19 04:40:53;;;;;;;12.93;6.00;;;;;;;;;;5113385;28;20289;-79
2023/03/19 04:43:21;;;;;;;14.97;5.87;;;;;;;;;;5113175;28;20229;-78
2023/03/19 04:45:49;;;;;;;10.77;6.50;;;;;;;;;;5113048;28;20241;-79
2023/03/19 04:48:17;;;;;;;11.10;6.17;;;;;;;;;;5112640;28;20730;-79
2023/03/19 04:50:44;;;;;;;11.90;6.40;;;;;;;;;;5112745;28;20288;-78
2023/03/19 04:53:11;;;;;;;11.17;6.07;;;;;;;;;;5113120;28;20351;-78
2023/03/19 04:55:38;;;;;;;14.33;6.20;;;;;;;;;;5113296;28;20196;-77
2023/03/19 04:58:07;;;;;;;11.20;6.10;;;;;;;;;;5112875;28;20197;-78
2023/03/19 05:00:34;;;;;;;13.07;5.20;;;;;;;;;;5113092;28;20225;-78
2023/03/19 05:03:03;;;;;;;15.80;5.93;;;;;;;;;;5112801;28;20198;-78
2023/03/19 05:05:30;;;;;;;13.37;5.27;;;;;;;;;;5112432;28;20733;-80
2023/03/19 05:07:57;;;;;;;12.13;5.13;;;;;;;;;;5112650;28;20232;-79
2023/03/19 05:10:25;;;;;;;14.10;5.60;;;;;;;;;;5112585;28;20284;-79
2023/03/19 05:12:52;;;;;;;9.63;5.10;;;;;;;;;;5112199;28;20260;-79
2023/03/19 05:15:19;;;;;;;11.47;4.80;;;;;;;;;;5112626;28;20285;-78
2023/03/19 05:17:47;;;;;;;13.27;5.37;;;;;;;;;;5112614;28;20654;-78
2023/03/19 05:20:16;;;;;;;13.97;5.40;;;;;;;;;;5112333;28;20197;-78
2023/03/19 05:22:45;;;;;;;10.43;4.90;;;;;;;;;;5112045;28;20210;-78
2023/03/19 05:25:13;;;;;;;10.67;5.13;;;;;;;;;;5112476;28;20666;-78
2023/03/19 05:27:41;;;;;;;8.80;5.07;;;;;;;;;;5112295;28;20185;-78
2023/03/19 05:30:09;;;;;;;10.13;5.53;;;;;;;;;;5112187;28;20250;-78
2023/03/19 05:32:37;;;;;;;9.27;5.30;;;;;;;;;;5112107;28;20232;-78
2023/03/19 05:35:05;;;;;;;7.33;4.50;;;;;;;;;;5112292;28;20197;-77
2023/03/19 05:37:33;;;;;;;9.60;5.50;;;;;;;;;;5111741;27;20197;-77
2023/03/19 05:40:00;;;;;;;10.47;4.80;;;;;;;;;;5111313;28;20221;-78
2023/03/19 05:42:28;;;;;;;10.67;5.27;;;;;;;;;;5112059;28;20293;-76
2023/03/19 05:44:55;;;;;;;8.97;5.50;;;;;;;;;;5112560;28;20248;-79
2023/03/19 05:47:22;;;;;;;8.93;5.07;;;;;;;;;;5111902;28;20331;-78
2023/03/19 05:49:49;;;;;;;9.27;4.50;;;;;;;;;;5111360;28;20229;-78
2023/03/19 05:52:17;;;;;;;8.60;4.33;;;;;;;;;;5111764;28;20275;-78
2023/03/19 05:54:48;;;;;;;5.67;4.37;;;;;;;;;;5111764;28;20677;-78
2023/03/19 05:57:15;;;;;;;10.13;4.30;;;;;;;;;;5111956;28;20221;-77
2023/03/19 05:59:42;;;;;;;5.80;3.57;;;;;;;;;;5111596;28;20531;-78
2023/03/19 06:02:10;;;;;;;10.37;3.83;;;;;;;;;;5111739;28;20323;-78
2023/03/19 06:04:37;;;;;;;12.73;4.30;;;;;;;;;;5111555;28;20224;-78
2023/03/19 06:07:04;;;;;;;4.90;4.03;;;;;;;;;;5111915;28;20229;-78
2023/03/19 06:09:31;;;;;;;7.50;3.60;;;;;;;;;;5111805;28;20292;-78
2023/03/19 06:12:00;;;;;;;6.87;3.20;;;;;;;;;;5110992;28;20236;-78
2023/03/19 06:14:27;;;;;;;8.60;3.63;;;;;;;;;;5111853;28;20193;-78
2023/03/19 06:16:55;;;;;;;6.97;3.47;;;;;;;;;;5111982;28;20291;-78
2023/03/19 06:19:22;;;;;;;8.50;3.30;;;;;;;;;;5111141;28;20201;-78
2023/03/19 06:21:49;;;;;;;8.80;3.23;;;;;;;;;;5111405;28;20288;-79
2023/03/19 06:24:16;;;;;;;6.50;3.10;;;;;;;;;;5111343;28;20684;-78
2023/03/19 06:26:43;;;;;;;7.37;2.93;;;;;;;;;;5111368;28;20276;-78
2023/03/19 06:29:12;;;;;;;8.77;3.17;;;;;;;;;;5111706;28;20300;-78
2023/03/19 06:31:40;;;;;;;6.47;3.07;;;;;;;;;;5111763;28;20288;-78
2023/03/19 06:34:07;;;;;;;6.50;2.77;;;;;;;;;;5111161;28;20296;-78
2023/03/19 06:36:34;;;;;;;11.07;3.17;;;;;;;;;;5111921;28;20218;-78
2023/03/19 06:39:02;;;;;;;9.87;3.30;;;;;;;;;;5111976;28;20228;-78
2023/03/19 06:41:29;;;;;;;6.10;2.60;;;;;;;;;;5111516;28;20204;-78
2023/03/19 06:43:56;;;;;;;6.57;2.83;;;;;;;;;;5111168;28;20207;-77
2023/03/19 06:46:25;;;;;;;7.33;3.20;;;;;;;;;;5111078;28;20649;-78
2023/03/19 06:48:53;;;;;;;9.10;3.47;;;;;;;;;;5111288;28;20196;-77
2023/03/19 06:51:20;;;;;;;6.47;3.53;;;;;;;;;;5113491;28;20209;-79
2023/03/19 06:53:47;;;;;;;7.70;3.40;;;;;;;;;;5115195;28;20229;-78
2023/03/19 06:56:14;;;;;;;11.47;3.10;;;;;;;;;;5115532;28;20670;-78
2023/03/19 06:58:42;;;;;;;5.83;3.33;;;;;;;;;;5115007;28;20654;-78
2023/03/19 07:01:09;;;;;;;6.97;3.10;;;;;;;;;;5114712;28;20284;-79
2023/03/19 07:03:37;;;;;;;3.90;2.63;;;;;;;;;;5115658;28;20228;-77
2023/03/19 07:06:06;;;;;;;4.30;2.43;;;;;;;;;;5115441;28;20776;-78
2023/03/19 07:08:33;;;;;;;5.43;2.47;;;;;;;;;;5114789;28;20610;-78
2023/03/19 07:11:04;;;;;;;5.57;2.43;;;;;;;;;;5114434;28;20240;-78
2023/03/19 07:13:31;;;;;;;5.87;2.60;;;;;;;;;;5114855;28;20228;-78
2023/03/19 07:15:59;;;;;;;6.07;2.77;;;;;;;;;;5114608;27;20741;-78
2023/03/19 07:18:26;;;;;;;6.73;2.67;;;;;;;;;;5115125;28;20243;-78
2023/03/19 07:20:54;;;;;;;4.43;2.20;;;;;;;;;;5114935;28;20197;-78
2023/03/19 07:23:22;;;;;;;5.07;2.20;;;;;;;;;;5114751;28;20280;-78
2023/03/19 07:25:49;;;;;;;4.13;2.27;;;;;;;;;;5114697;28;20194;-77
2023/03/19 07:28:16;;;;;;;5.90;2.30;;;;;;;;;;5114634;28;20197;-79
2023/03/19 07:30:43;;;;;;;6.10;2.17;;;;;;;;;;5114204;28;20224;-79
2023/03/19 07:33:11;;;;;;;6.83;2.30;;;;;;;;;;5114383;28;20263;-78
2023/03/19 07:35:38;;;;;;;7.97;2.37;;;;;;;;;;5114813;28;20278;-78
2023/03/19 07:38:06;;;;;;;6.30;2.10;;;;;;;;;;5114655;28;20284;-78
2023/03/19 07:40:33;;;;;;;4.47;2.27;;;;;;;;;;5114167;28;20634;-78
2023/03/19 07:43:01;;;;;;;3.60;2.13;;;;;;;;;;5114654;28;20635;-79
2023/03/19 07:45:28;;;;;;;4.80;2.90;;;;;;;;;;5113799;28;20202;-78
2023/03/19 07:47:55;;;;;;;7.87;2.87;;;;;;;;;;5114225;28;20225;-79
2023/03/19 07:50:22;;;;;;;8.90;2.40;;;;;;;;;;5114307;28;20236;-78
2023/03/19 07:52:50;;;;;;;5.33;2.10;;;;;;;;;;5113716;28;20679;-79
2023/03/19 07:55:20;;;;;;;7.73;2.23;;;;;;;;;;5114112;28;20694;-78
2023/03/19 07:57:47;;;;;;;4.97;2.00;;;;;;;;;;5113939;28;20194;-79
2023/03/19 08:00:14;;;;;;;4.70;1.77;;;;;;;;;;5113770;28;20273;-78
2023/03/19 08:02:42;;;;;;;6.50;2.00;;;;;;;;;;5112889;28;20288;-77
2023/03/19 08:05:10;;;;;;;4.03;1.40;;;;;;;;;;5114064;28;20200;-78
2023/03/19 08:07:37;;;;;;;7.60;1.77;;;;;;;;;;5113764;28;20244;-78
2023/03/19 08:10:06;;;;;;;4.43;1.80;;;;;;;;;;5114186;28;20296;-78
2023/03/19 08:12:39;;;;;;;4.63;2.10;;;;;;;;;;5113950;28;20205;-78
2023/03/19 08:15:08;;;;;;;6.07;2.10;;;;;;;;;;5113509;28;20194;-78
2023/03/19 08:17:37;;;;;;;6.30;2.03;;;;;;;;;;5113354;28;20204;-78
2023/03/19 08:20:04;;;;;;;4.80;1.87;;;;;;;;;;5113752;28;20217;-78
2023/03/19 08:22:32;;;;;;;3.03;1.50;;;;;;;;;;5114338;28;20280;-79
2023/03/19 08:24:59;;;;;;;6.10;1.60;;;;;;;;;;5113371;28;20749;-78
2023/03/19 08:27:27;;;;;;;6.37;1.63;;;;;;;;;;5113135;28;20197;-78
2023/03/19 08:29:55;;;;;;;4.20;1.57;;;;;;;;;;5113088;28;20272;-78
2023/03/19 08:32:23;;;;;;;5.07;1.70;;;;;;;;;;5113207;28;20232;-77
2023/03/19 08:34:50;;;;;;;6.33;1.63;;;;;;;;;;5113181;28;20278;-77
2023/03/19 08:37:17;;;;;;;5.80;1.60;;;;;;;;;;5112976;28;20240;-78
2023/03/19 08:39:45;;;;;;;4.67;1.80;;;;;;;;;;5113003;28;20284;-78
2023/03/19 08:42:12;;;;;;;4.70;1.20;;;;;;;;;;5113448;28;20304;-78
2023/03/19 08:44:39;;;;;;;4.88;1.55;;;;;;;;;;5112661;28;20263;-77
2023/03/19 08:47:08;;;;;;;5.13;1.50;;;;;;;;;;5113133;28;20229;-78
2023/03/19 08:49:35;;;;;;;4.03;1.30;;;;;;;;;;5112917;28;20277;-77
2023/03/19 08:52:03;;;;;;;4.82;1.23;;;;;;;;;;5112791;28;20241;-79
2023/03/19 08:54:30;;;;;;;3.78;1.20;;;;;;;;;;5112929;28;20290;-78
2023/03/19 08:56:57;;;;;;;4.70;1.20;;;;;;;;;;5113024;28;20200;-77
2023/03/19 08:59:25;;;;;;;3.60;1.30;;;;;;;;;;5112407;28;20193;-77
2023/03/19 09:01:52;;;;;;;4.10;0.90;;;;;;;;;;5112946;28;20201;-77
2023/03/19 09:04:21;;;;;;;5.73;1.40;;;;;;;;;;5113305;28;20229;-77
2023/03/19 09:06:50;;;;;;;6.47;1.37;;;;;;;;;;5112699;28;20201;-77
2023/03/19 09:09:18;;;;;;;5.60;1.23;;;;;;;;;;5112409;28;20238;-78
2023/03/19 09:11:45;;;;;;;4.80;1.30;;;;;;;;;;5110173;28;20229;-78
2023/03/19 09:14:12;;;;;;;5.70;1.20;;;;;;;;;;5092155;28;20229;-76
2023/03/19 09:16:40;;;;;;;6.18;1.30;;;;;;;;;;5100230;28;20247;-78
2023/03/19 09:19:08;;;;;;;4.93;1.38;;;;;;;;;;5110650;28;20202;-77
2023/03/19 09:21:37;;;;;;;3.30;1.00;;;;;;;;;;5128238;27;20194;-76
2023/03/19 09:24:04;;;;;;;4.57;1.23;;;;;;;;;;5111043;28;20271;-77
2023/03/19 09:26:31;;;;;;;3.88;1.05;;;;;;;;;;5106608;28;20194;-77
2023/03/19 09:35:16;;;;;;;3.90;0.90;;;;;;;;;;4942162;29;20234;-79
2023/03/19 09:37:45;;;;;;;4.40;1.08;;;;;;;;;;4931802;29;20210;-77
2023/03/19 09:40:20;;;;;;;3.65;0.80;;;;;;;;;;4950153;29;20207;-78
2023/03/19 09:42:54;;;;;;;4.05;1.05;;;;;;;;;;4949267;29;20698;-76
2023/03/19 09:45:29;;;;;;;3.15;0.98;;;;;;;;;;4950515;29;20207;-77
2023/03/19 09:48:16;;;;;;;3.70;0.98;;;;;;;;;;4949036;29;20218;-77
2023/03/19 09:50:43;;;;;;;5.97;1.05;;;;;;;;;;4950459;29;20234;-78
2023/03/19 09:53:16;;;;;;;3.55;1.08;;;;;;;;;;4948544;29;20290;-78
2023/03/19 09:55:44;;;;;;;5.55;1.20;;;;;;;;;;4948846;28;20286;-79
2023/03/19 09:58:14;;;;;;;3.67;0.93;;;;;;;;;;4963275;28;20768;-76
2023/03/19 10:00:42;;;;;;;4.38;1.02;;;;;;;;;;5025901;28;20200;-77
2023/03/19 10:03:16;;;;;;;3.83;1.05;;;;;;;;;;5029191;28;20639;-78
2023/03/19 10:05:47;;;;;;;2.47;0.85;;;;;;;;;;5028777;28;20234;-77
2023/03/19 10:08:39;;;;;;;4.78;1.38;;;;;;;;;;5029208;28;20207;-77
2023/03/19 10:11:14;;;;;;;4.20;1.00;;;;;;;;;;5026701;28;20247;-78
2023/03/19 10:13:48;;;;;;;4.00;1.10;;;;;;;;;;5111438;28;20226;-78
2023/03/19 10:16:17;;;;;;;5.63;1.20;;;;;;;;;;5106751;28;20273;-78
2023/03/19 10:18:47;;;;;;;3.45;0.77;;;;;;;;;;5091624;28;20198;-78
2023/03/19 10:21:17;;;;;;;3.25;0.85;;;;;;;;;;5090912;28;20295;-79
2023/03/19 10:23:47;;;;;;;2.70;1.00;;;;;;;;;;5091205;28;20256;-78
2023/03/19 10:26:15;;;;;;;4.45;1.10;;;;;;;;;;5100020;28;20212;-78
2023/03/19 10:28:44;;;;;;;3.40;0.88;;;;;;;;;;5115404;28;20666;-76
2023/03/19 10:31:22;;;;;;;4.40;1.27;;;;;;;;;;5103043;28;20205;-81
2023/03/19 10:33:53;;;;;;;4.47;1.30;;;;;;;;;;5094956;28;20643;-81
2023/03/19 10:36:21;;;;;;;3.50;0.98;;;;;;;;;;5095285;28;20198;-81
2023/03/19 10:38:49;;;;;;;2.10;0.90;;;;;;;;;;5095308;28;20241;-81
2023/03/19 10:41:20;;;;;;;4.05;0.98;;;;;;;;;;5094824;28;20703;-81
2023/03/19 10:43:49;;;;;;;6.10;0.90;;;;;;;;;;5095576;28;20226;-81
2023/03/19 10:46:16;;;;;;;2.72;0.90;;;;;;;;;;5095372;28;20261;-81
2023/03/19 10:48:45;;;;;;;4.43;0.90;;;;;;;;;;5095429;28;20198;-81
2023/03/19 10:51:14;;;;;;;3.20;0.93;;;;;;;;;;5095079;28;20577;-81
2023/03/19 10:53:41;;;;;;;2.38;0.95;;;;;;;;;;5094507;28;20636;-81
2023/03/19 10:56:17;;;;;;;3.85;0.90;;;;;;;;;;5095214;28;20232;-81
2023/03/19 10:58:56;;;;;;;6.57;1.35;;;;;;;;;;5095030;28;20194;-81
2023/03/19 11:01:27;;;;;;;4.50;1.08;;;;;;;;;;5094917;28;20288;-81
2023/03/19 11:03:57;;;;;;;2.78;0.95;;;;;;;;;;5094993;28;20194;-81
2023/03/19 11:06:26;;;;;;;5.63;1.30;;;;;;;;;;5095147;28;20197;-81
2023/03/19 11:08:56;;;;;;;4.10;1.10;;;;;;;;;;5094481;28;20651;-80
2023/03/19 11:11:26;;;;;;;4.65;1.02;;;;;;;;;;5094741;28;20253;-81
2023/03/19 11:13:53;;;;;;;4.18;1.30;;;;;;;;;;5112335;28;20221;-81
2023/03/19 11:16:20;;;;;;;3.97;1.10;;;;;;;;;;5115343;27;20247;-81
2023/03/19 11:18:49;;;;;;;4.05;1.00;;;;;;;;;;5115188;28;20252;-82
2023/03/19 11:21:23;;;;;;;3.13;1.10;;;;;;;;;;5114814;28;20200;-81
2023/03/19 11:23:53;;;;;;;3.42;1.20;;;;;;;;;;5114648;28;20196;-81
2023/03/19 11:26:20;;;;;;;4.63;1.05;;;;;;;;;;5114832;28;20639;-82
2023/03/19 11:28:53;;;;;;;3.55;1.13;;;;;;;;;;5114714;28;20194;-82
2023/03/19 11:31:22;;;;;;;2.55;1.05;;;;;;;;;;5114778;28;20194;-82
2023/03/19 11:33:53;;;;;;;4.55;1.05;;;;;;;;;;5114737;28;20201;-81
2023/03/19 11:36:23;;;;;;;3.42;1.10;;;;;;;;;;5114154;28;20201;-81
2023/03/19 11:38:57;;;;;;;2.95;1.05;;;;;;;;;;5113675;28;20205;-81
2023/03/19 11:41:30;;;;;;;5.10;1.10;;;;;;;;;;5114499;28;20293;-82
2023/03/19 11:44:02;;;;;;;4.63;1.00;;;;;;;;;;5113016;28;20193;-82
2023/03/19 11:46:43;;;;;;;5.78;1.25;;;;;;;;;;5111039;28;20685;-82
2023/03/19 11:49:20;;;;;;;4.13;1.00;;;;;;;;;;5111337;28;20615;-83
2023/03/19 11:51:51;;;;;;;3.10;1.05;;;;;;;;;;5110341;28;20254;-81
2023/03/19 11:54:23;;;;;;;5.85;1.38;;;;;;;;;;5113485;28;20304;-81
2023/03/19 11:56:54;;;;;;;3.92;1.25;;;;;;;;;;5113000;28;20221;-81
2023/03/19 11:59:31;;;;;;;5.93;1.50;;;;;;;;;;5113058;28;20280;-81
2023/03/19 12:02:18;;;;;;;6.22;1.40;;;;;;;;;;5111166;28;20201;-81
2023/03/19 12:04:59;;;;;;;4.70;1.05;;;;;;;;;;5112075;28;20284;-81
2023/03/19 12:07:29;;;;;;;5.97;1.33;;;;;;;;;;5111782;28;20198;-81
2023/03/19 12:10:02;;;;;;;4.53;1.00;;;;;;;;;;5113116;28;20190;-81
2023/03/19 12:12:33;;;;;;;3.78;1.08;;;;;;;;;;5112566;28;20688;-80
2023/03/19 12:15:09;;;;;;;4.82;1.30;;;;;;;;;;5112498;28;20782;-81
2023/03/19 12:17:45;;;;;;;5.40;1.40;;;;;;;;;;5110722;28;20239;-81
2023/03/19 12:20:18;;;;;;;4.05;1.20;;;;;;;;;;5109794;28;20193;-82
2023/03/19 12:22:52;;;;;;;7.63;1.88;;;;;;;;;;5113227;28;20235;-81
2023/03/19 12:25:30;;;;;;;7.15;1.40;;;;;;;;;;5113619;28;20644;-81
2023/03/19 12:28:01;;;;;;;6.32;1.65;;;;;;;;;;5113063;28;20251;-80
2023/03/19 12:30:33;;;;;;;8.68;1.30;;;;;;;;;;5112334;28;20194;-81
2023/03/19 12:33:12;;;;;;;3.75;1.20;;;;;;;;;;5113368;28;20229;-81
2023/03/19 12:35:40;;;;;;;4.25;1.17;;;;;;;;;;5112625;28;20300;-81
2023/03/19 12:38:11;;;;;;;6.25;1.30;;;;;;;;;;5113212;28;20231;-82
2023/03/19 12:40:40;;;;;;;5.95;1.15;;;;;;;;;;5111964;28;20282;-81
2023/03/19 12:43:24;;;;;;;1.88;0.73;;;;;;;;;;5111777;28;20186;-82
2023/03/19 12:45:56;;;;;;;6.18;2.17;;;;;;;;;;5111479;28;20225;-82
2023/03/19 12:48:27;;;;;;;5.78;1.55;;;;;;;;;;5112678;28;20221;-81
2023/03/19 12:50:57;;;;;;;7.63;1.60;;;;;;;;;;5109624;28;20280;-82
2023/03/19 12:53:29;;;;;;;6.53;1.30;;;;;;;;;;5112457;28;20198;-80
2023/03/19 12:55:58;;;;;;;5.60;1.40;;;;;;;;;;5110107;28;20225;-81
2023/03/19 12:58:31;;;;;;;5.47;1.40;;;;;;;;;;5112477;28;20270;-81
2023/03/19 13:01:02;;;;;;;3.97;1.20;;;;;;;;;;5110606;28;20235;-82
2023/03/19 13:03:32;;;;;;;4.55;1.42;;;;;;;;;;5112356;28;20202;-82
2023/03/19 13:06:02;;;;;;;4.78;1.20;;;;;;;;;;5112366;28;20216;-82
2023/03/19 13:08:33;;;;;;;4.00;1.17;;;;;;;;;;5112172;28;20232;-81
2023/03/19 13:11:03;;;;;;;3.90;1.23;;;;;;;;;;5112584;28;20563;-81
2023/03/19 13:13:37;;;;;;;7.80;1.40;;;;;;;;;;5111893;28;20197;-82
2023/03/19 13:16:10;;;;;;;3.63;1.23;;;;;;;;;;5112063;28;20223;-81
2023/03/19 13:18:41;;;;;;;6.85;1.30;;;;;;;;;;5109600;28;20289;-82
2023/03/19 13:21:18;;;;;;;4.38;1.30;;;;;;;;;;5111973;28;20228;-82
2023/03/19 13:23:46;;;;;;;3.90;1.25;;;;;;;;;;5111883;28;20189;-82
2023/03/19 13:26:14;;;;;;;3.95;1.48;;;;;;;;;;5112320;28;20229;-81
2023/03/19 13:28:54;;;;;;;3.15;1.08;;;;;;;;;;5111995;28;20190;-81
2023/03/19 13:31:25;;;;;;;2.80;1.10;;;;;;;;;;5110110;28;20297;-81
2023/03/19 13:33:54;;;;;;;3.92;1.10;;;;;;;;;;5111541;28;20665;-82
2023/03/19 13:36:21;;;;;;;3.90;1.17;;;;;;;;;;5111798;28;20306;-81
2023/03/19 13:38:50;;;;;;;5.78;1.55;;;;;;;;;;5111639;28;20887;-81
2023/03/19 13:41:36;;;;;;;3.30;1.23;;;;;;;;;;5112115;28;20197;-82
2023/03/19 13:44:23;;;;;;;3.45;0.98;;;;;;;;;;5110237;28;20196;-81
2023/03/19 13:46:52;;;;;;;5.38;1.25;;;;;;;;;;5111018;28;20260;-82
2023/03/19 13:49:34;;;;;;;4.05;1.20;;;;;;;;;;5111115;28;20285;-82
2023/03/19 13:52:16;;;;;;;5.13;1.63;;;;;;;;;;5109654;28;20670;-82
2023/03/19 13:54:45;;;;;;;3.33;1.33;;;;;;;;;;5109731;28;20220;-81
2023/03/19 13:57:21;;;;;;;6.15;1.20;;;;;;;;;;5111567;28;20587;-82
2023/03/19 13:59:49;;;;;;;4.85;1.00;;;;;;;;;;5110516;28;20196;-81
2023/03/19 14:02:35;;;;;;;6.13;1.27;;;;;;;;;;5109004;28;20197;-81
2023/03/19 14:05:09;;;;;;;3.28;0.90;;;;;;;;;;5110270;28;20581;-82
2023/03/19 14:07:37;;;;;;;3.72;1.17;;;;;;;;;;5108824;28;20545;-81
2023/03/19 14:10:05;;;;;;;3.42;1.17;;;;;;;;;;5111136;28;20221;-82
2023/03/19 14:12:33;;;;;;;4.85;1.38;;;;;;;;;;5111391;28;20213;-81
2023/03/19 14:15:03;;;;;;;4.25;1.00;;;;;;;;;;5111838;28;20307;-82
2023/03/19 14:17:32;;;;;;;3.42;1.25;;;;;;;;;;5111812;28;20232;-82
2023/03/19 14:20:04;;;;;;;4.78;1.10;;;;;;;;;;5111222;28;20594;-81
2023/03/19 14:22:36;;;;;;;4.55;1.23;;;;;;;;;;5111555;28;20229;-80
2023/03/19 14:25:13;;;;;;;5.32;1.25;;;;;;;;;;5111677;28;20197;-81
2023/03/19 14:27:44;;;;;;;3.25;1.00;;;;;;;;;;5111735;28;20194;-81
2023/03/19 14:30:16;;;;;;;3.03;1.10;;;;;;;;;;5097336;28;20697;-82
2023/03/19 14:32:46;;;;;;;6.55;1.13;;;;;;;;;;5111296;28;20590;-82
2023/03/19 14:35:16;;;;;;;4.90;1.10;;;;;;;;;;5110927;28;20646;-81
2023/03/19 14:37:47;;;;;;;5.53;1.20;;;;;;;;;;5111312;28;20194;-82
2023/03/19 14:40:16;;;;;;;6.28;1.50;;;;;;;;;;5111397;28;20604;-83
2023/03/19 14:42:54;;;;;;;3.72;0.93;;;;;;;;;;5111184;28;20684;-83
2023/03/19 14:45:35;;;;;;;3.72;1.00;;;;;;;;;;5111039;28;20301;-82
2023/03/19 14:48:17;;;;;;;4.17;1.03;;;;;;;;;;5111217;28;20899;-85
2023/03/19 14:51:04;;;;;;;2.92;0.80;;;;;;;;;;5110925;28;20755;-82
2023/03/19 14:53:36;;;;;;;1.95;0.73;;;;;;;;;;5110869;28;20696;-81
2023/03/19 14:56:12;;;;;;;3.45;0.90;;;;;;;;;;5110963;28;20210;-83
2023/03/19 14:58:47;;;;;;;3.10;1.30;;;;;;;;;;5111001;28;20218;-83